Time;durP1;ratioP1;P1;durP2;ratioP2;P2;SDS_P1;SDS_P2;PMS_P1;PMS_P2;Temp;Humidity;BMP_temperature;BMP_pressure;BME280_temperature;BME280_humidity;BME280_pressure;Samples;Min_cycle;Max_cycle;Signal;HPM_P1;HPM_P2
2023/10/29 00:04:47;;;;;;;3.70;1.00;;;;;;;10.88;100.00;97179.84;15283875;19;20025;-53
2023/10/29 00:10:12;;;;;;;2.78;0.90;;;;;;;10.93;100.00;97171.19;15283827;19;20033;-53
2023/10/29 00:15:39;;;;;;;3.05;0.90;;;;;;;10.95;100.00;97169.94;15281430;19;20018;-51
2023/10/29 00:21:12;;;;;;;3.25;1.13;;;;;;;10.97;100.00;97167.06;15274641;19;20022;-53
2023/10/29 00:26:37;;;;;;;2.08;0.90;;;;;;;10.99;100.00;97170.41;15282674;19;20074;-51
2023/10/29 00:32:04;;;;;;;3.25;0.90;;;;;;;10.99;100.00;97154.25;15273208;19;20018;-50
2023/10/29 00:37:29;;;;;;;3.53;1.00;;;;;;;11.00;100.00;97153.19;15279984;19;20018;-51
2023/10/29 00:42:54;;;;;;;3.75;1.00;;;;;;;10.99;100.00;97165.03;15279186;19;20475;-52
2023/10/29 00:48:22;;;;;;;3.00;1.10;;;;;;;10.97;100.00;97142.81;15281398;19;20014;-51
2023/10/29 00:53:47;;;;;;;2.67;0.90;;;;;;;10.98;100.00;97147.19;15271289;19;20022;-51
2023/10/29 00:59:14;;;;;;;3.78;1.10;;;;;;;10.98;100.00;97130.16;15277367;19;20548;-54
2023/10/29 01:04:45;;;;;;;2.88;0.98;;;;;;;10.99;100.00;97124.59;15280654;19;20019;-51
2023/10/29 01:10:10;;;;;;;2.70;0.90;;;;;;;11.01;100.00;97113.63;15281019;19;20041;-50
2023/10/29 01:15:35;;;;;;;2.67;0.90;;;;;;;11.01;100.00;97114.44;15277985;19;20370;-50
2023/10/29 01:21:11;;;;;;;3.53;1.00;;;;;;;11.00;100.00;97118.16;15276858;19;20033;-52
2023/10/29 01:26:37;;;;;;;2.53;0.80;;;;;;;11.02;100.00;97105.31;15275675;19;20651;-50
2023/10/29 01:32:01;;;;;;;1.40;0.70;;;;;;;11.04;100.00;97103.28;15274427;19;20031;-53
2023/10/29 01:37:28;;;;;;;2.58;0.90;;;;;;;11.07;100.00;97096.66;15274733;19;20085;-55
2023/10/29 01:42:53;;;;;;;3.97;0.90;;;;;;;11.05;100.00;97094.16;15275102;19;20014;-52
2023/10/29 01:48:19;;;;;;;3.63;0.98;;;;;;;11.09;100.00;97083.81;15279355;19;20017;-54
2023/10/29 01:53:46;;;;;;;2.40;0.90;;;;;;;11.08;100.00;97072.22;15274696;19;20014;-52
2023/10/29 01:59:11;;;;;;;2.13;1.00;;;;;;;11.10;100.00;97063.91;15268478;19;20033;-50
2023/10/29 02:04:36;;;;;;;3.28;0.80;;;;;;;11.13;100.00;97071.63;15283849;19;20025;-52
2023/10/29 02:10:04;;;;;;;3.45;0.95;;;;;;;11.19;100.00;97053.81;15290042;19;20047;-53
2023/10/29 02:15:29;;;;;;;2.28;0.80;;;;;;;11.24;100.00;97038.72;15290638;19;20049;-49
2023/10/29 02:20:54;;;;;;;1.65;0.73;;;;;;;11.29;100.00;97032.72;15286476;19;20039;-54
2023/10/29 02:26:21;;;;;;;3.22;0.98;;;;;;;11.32;100.00;97029.63;15288931;19;20014;-52
2023/10/29 02:31:46;;;;;;;2.25;0.80;;;;;;;11.36;100.00;97030.03;15283730;19;20014;-49
2023/10/29 02:37:10;;;;;;;2.88;0.82;;;;;;;11.42;100.00;97023.84;15287370;19;20428;-50
2023/10/29 02:42:37;;;;;;;2.33;0.90;;;;;;;11.43;100.00;97013.91;15284944;19;20517;-50
2023/10/29 02:48:02;;;;;;;2.17;0.85;;;;;;;11.44;100.00;97023.66;15289082;19;20077;-51
2023/10/29 02:53:28;;;;;;;1.77;0.73;;;;;;;11.43;100.00;97019.28;15284586;19;20089;-54
2023/10/29 02:58:55;;;;;;;1.92;0.85;;;;;;;11.44;100.00;97015.56;15285882;19;20026;-54
2023/10/29 03:04:20;;;;;;;1.75;0.82;;;;;;;11.41;100.00;97009.53;15278500;19;20046;-55
2023/10/29 03:09:45;;;;;;;1.75;0.68;;;;;;;11.43;100.00;97008.50;15287950;19;20023;-52
2023/10/29 03:15:13;;;;;;;2.85;0.80;;;;;;;11.40;100.00;97015.97;15287743;19;20074;-53
2023/10/29 03:20:37;;;;;;;1.80;0.73;;;;;;;11.38;100.00;97012.63;15281431;19;20368;-53
2023/10/29 03:26:05;;;;;;;2.85;0.90;;;;;;;11.37;100.00;97005.56;15279726;19;20375;-51
2023/10/29 03:31:33;;;;;;;1.40;0.70;;;;;;;11.36;100.00;96993.13;15281069;19;20082;-53
2023/10/29 03:36:58;;;;;;;1.38;0.80;;;;;;;11.33;100.00;96998.09;15277066;19;20017;-52
2023/10/29 03:42:22;;;;;;;1.85;0.60;;;;;;;11.36;100.00;97008.47;15279698;19;20039;-50
2023/10/29 03:47:50;;;;;;;1.80;0.68;;;;;;;11.34;100.00;96995.22;15280382;19;20370;-53
2023/10/29 03:53:15;;;;;;;2.42;0.80;;;;;;;11.37;100.00;97002.88;15275823;19;20029;-54
2023/10/29 03:58:40;;;;;;;2.05;0.82;;;;;;;11.39;100.00;96998.13;15278377;19;20440;-54
2023/10/29 04:04:08;;;;;;;1.63;0.70;;;;;;;11.40;100.00;96991.69;15274556;19;20477;-50
2023/10/29 04:09:33;;;;;;;2.83;1.00;;;;;;;11.42;100.00;96986.09;15282237;19;20006;-50
2023/10/29 04:14:58;;;;;;;1.70;0.70;;;;;;;11.43;100.00;96970.75;15280073;19;20025;-56
2023/10/29 04:20:27;;;;;;;2.65;0.70;;;;;;;11.43;100.00;96957.28;15277896;19;20006;-51
2023/10/29 04:25:51;;;;;;;1.77;0.70;;;;;;;11.44;100.00;96950.84;15281908;19;20760;-49
2023/10/29 04:31:16;;;;;;;2.45;0.82;;;;;;;11.44;100.00;96930.09;15279056;19;20018;-51
2023/10/29 04:36:48;;;;;;;1.92;0.70;;;;;;;11.44;100.00;96919.31;15277689;19;20817;-53
2023/10/29 04:42:13;;;;;;;1.33;0.60;;;;;;;11.40;100.00;96907.28;15278102;19;20075;-51
2023/10/29 04:47:37;;;;;;;1.38;0.70;;;;;;;11.39;100.00;96905.63;14768503;19;10001933;-53
2023/10/29 04:53:04;;;;;;;1.45;0.60;;;;;;;11.41;100.00;96893.59;15275897;19;20039;-55
2023/10/29 04:58:29;;;;;;;1.77;0.70;;;;;;;11.45;100.00;96890.50;15280431;19;20046;-53
2023/10/29 05:04:00;;;;;;;1.98;0.63;;;;;;;11.46;100.00;96865.19;15278372;19;20014;-50
2023/10/29 05:09:27;;;;;;;1.90;0.75;;;;;;;11.48;100.00;96825.34;15275977;19;20019;-51
2023/10/29 05:14:53;;;;;;;2.78;0.70;;;;;;;11.54;100.00;96806.47;15279822;19;20359;-51
2023/10/29 05:20:18;;;;;;;1.88;0.65;;;;;;;11.57;100.00;96805.25;15277584;19;20020;-49
2023/10/29 05:25:45;;;;;;;4.60;0.80;;;;;;;11.60;100.00;96804.00;15279081;19;20018;-53
2023/10/29 05:31:10;;;;;;;2.88;0.70;;;;;;;11.59;100.00;96792.38;15280068;19;20721;-53
2023/10/29 05:36:35;;;;;;;2.80;0.70;;;;;;;11.62;100.00;96813.53;15277806;19;20073;-54
2023/10/29 05:42:02;;;;;;;1.38;0.63;;;;;;;11.62;100.00;96813.53;15274323;19;20010;-54
2023/10/29 05:47:28;;;;;;;1.60;0.70;;;;;;;11.64;100.00;96833.03;15279314;19;20018;-52
2023/10/29 05:52:53;;;;;;;1.80;0.70;;;;;;;11.72;100.00;96835.53;15276705;19;20003;-52
2023/10/29 05:58:21;;;;;;;1.08;0.60;;;;;;;11.75;100.00;96807.31;15276735;19;20014;-52
2023/10/29 06:03:46;;;;;;;2.53;0.70;;;;;;;11.78;100.00;96823.06;15274156;19;20022;-53
2023/10/29 06:09:10;;;;;;;2.40;0.57;;;;;;;11.82;100.00;96840.50;15273700;19;20023;-51
2023/10/29 06:14:45;;;;;;;1.85;0.60;;;;;;;11.82;100.00;96847.75;15271525;19;20032;-52
2023/10/29 06:20:16;;;;;;;0.55;0.40;;;;;;;11.85;100.00;96852.75;15268923;19;20018;-52
2023/10/29 06:25:42;;;;;;;2.92;0.60;;;;;;;11.86;100.00;96852.56;15271875;19;20394;-56
2023/10/29 06:31:09;;;;;;;1.20;0.60;;;;;;;11.91;100.00;96849.22;15275858;19;20012;-55
2023/10/29 06:36:35;;;;;;;1.08;0.50;;;;;;;11.94;100.00;96846.09;15274255;19;20082;-52
2023/10/29 06:42:01;;;;;;;1.33;0.50;;;;;;;11.98;100.00;96860.88;15273686;19;20014;-56
2023/10/29 06:47:28;;;;;;;3.25;0.60;;;;;;;12.04;100.00;96869.19;15274781;19;20843;-54
2023/10/29 06:52:54;;;;;;;2.53;0.60;;;;;;;12.07;100.00;96868.75;15286710;19;20484;-56
2023/10/29 06:58:19;;;;;;;0.63;0.43;;;;;;;12.13;100.00;96884.13;15284739;19;20368;-53
2023/10/29 07:03:46;;;;;;;0.52;0.47;;;;;;;12.24;100.00;96879.94;15281216;19;20026;-57
2023/10/29 07:09:15;;;;;;;1.63;0.60;;;;;;;12.35;100.00;96878.47;15287773;19;20059;-53
2023/10/29 07:14:39;;;;;;;1.30;0.52;;;;;;;12.47;100.00;96879.47;15286536;19;20485;-53
2023/10/29 07:20:08;;;;;;;0.90;0.50;;;;;;;12.66;100.00;96874.22;15279056;19;20342;-53
2023/10/29 07:25:34;;;;;;;2.97;0.60;;;;;;;12.71;100.00;96879.84;15285570;19;20018;-54
2023/10/29 07:30:59;;;;;;;1.70;0.47;;;;;;;12.75;100.00;96886.47;15286086;19;20020;-57
2023/10/29 07:36:26;;;;;;;1.05;0.60;;;;;;;12.80;100.00;96910.97;15285352;19;20085;-57
2023/10/29 07:41:51;;;;;;;0.93;0.60;;;;;;;12.81;100.00;96896.44;15285667;19;20022;-52
2023/10/29 07:47:15;;;;;;;3.10;0.60;;;;;;;12.79;100.00;96898.50;15286834;19;20011;-51
2023/10/29 07:52:42;;;;;;;0.80;0.60;;;;;;;12.79;100.00;96887.69;15278006;19;20025;-53
2023/10/29 07:58:07;;;;;;;1.60;0.50;;;;;;;12.85;100.00;96896.81;15281925;19;20475;-56
2023/10/29 08:03:32;;;;;;;1.20;0.70;;;;;;;12.95;100.00;96876.41;15281940;19;20029;-55
2023/10/29 08:08:59;;;;;;;0.70;0.60;;;;;;;13.05;100.00;96875.13;15287125;19;20086;-53
2023/10/29 08:14:24;;;;;;;1.40;0.50;;;;;;;13.25;100.00;96880.44;15282067;19;20012;-52
2023/10/29 08:19:48;;;;;;;0.98;0.40;;;;;;;13.44;100.00;96876.00;15280271;19;20342;-56
2023/10/29 08:25:16;;;;;;;1.00;0.50;;;;;;;13.60;100.00;96887.31;15279858;19;20023;-56
2023/10/29 08:30:40;;;;;;;0.88;0.40;;;;;;;13.69;100.00;96892.25;15285918;19;20014;-56
2023/10/29 08:36:06;;;;;;;1.27;0.50;;;;;;;13.74;100.00;96912.44;15282647;19;20082;-55
2023/10/29 08:41:34;;;;;;;0.70;0.40;;;;;;;13.69;100.00;96929.31;15276702;19;20070;-53
2023/10/29 08:46:59;;;;;;;0.70;0.32;;;;;;;13.64;100.00;96938.06;15279080;19;20388;-55
2023/10/29 08:52:23;;;;;;;2.40;0.50;;;;;;;13.65;100.00;96944.31;15281765;19;20010;-55
2023/10/29 08:57:51;;;;;;;0.77;0.40;;;;;;;13.61;100.00;96926.84;15273098;19;20022;-54
2023/10/29 09:03:18;;;;;;;1.27;0.40;;;;;;;13.56;100.00;96919.38;15279151;19;20031;-56
2023/10/29 09:08:43;;;;;;;0.70;0.47;;;;;;;13.55;100.00;96899.63;15282269;19;20386;-55
2023/10/29 09:14:11;;;;;;;1.20;0.50;;;;;;;13.53;100.00;96877.38;15277897;19;20007;-55
2023/10/29 09:19:36;;;;;;;0.35;0.30;;;;;;;13.50;100.00;96896.75;15280051;19;20019;-57
2023/10/29 09:25:00;;;;;;;0.75;0.43;;;;;;;13.50;100.00;96885.09;15279322;19;20078;-57
2023/10/29 09:30:28;;;;;;;0.40;0.40;;;;;;;13.51;100.00;96863.22;15276949;19;20017;-55
2023/10/29 09:35:52;;;;;;;1.83;0.40;;;;;;;13.54;100.00;96875.50;15276455;19;20017;-55
2023/10/29 09:41:19;;;;;;;4.70;0.60;;;;;;;13.57;100.00;96823.66;15277691;19;20010;-56
2023/10/29 09:46:50;;;;;;;0.43;0.30;;;;;;;13.58;100.00;96806.38;15279176;19;20014;-54
2023/10/29 09:52:16;;;;;;;0.52;0.40;;;;;;;13.59;100.00;96815.31;15276674;19;20500;-55
2023/10/29 09:57:40;;;;;;;0.75;0.43;;;;;;;13.65;100.00;96825.25;15277918;19;20050;-56
2023/10/29 10:03:09;;;;;;;2.08;0.50;;;;;;;13.71;100.00;96830.63;15271905;19;20014;-57
2023/10/29 10:08:35;;;;;;;1.48;0.32;;;;;;;13.70;100.00;96822.72;15278670;19;20024;-56
2023/10/29 10:14:00;;;;;;;0.40;0.40;;;;;;;13.64;100.00;96831.72;15265267;19;20436;-54
2023/10/29 10:19:27;;;;;;;1.45;0.30;;;;;;;13.62;100.00;96831.09;15268536;19;20017;-58
2023/10/29 10:24:52;;;;;;;0.73;0.30;;;;;;;13.66;100.00;96833.16;15282491;19;20021;-55
2023/10/29 10:30:33;;;;;;;0.65;0.32;;;;;;;13.69;100.00;96816.47;15290184;19;20027;-53
2023/10/29 10:36:01;;;;;;;0.43;0.40;;;;;;;13.75;100.00;96808.53;15288267;19;20025;-56
2023/10/29 10:41:25;;;;;;;0.70;0.40;;;;;;;13.87;100.00;96804.06;15289657;19;20020;-53
2023/10/29 10:46:51;;;;;;;1.33;0.45;;;;;;;13.97;100.00;96836.03;15291361;19;20519;-58
2023/10/29 10:52:21;;;;;;;1.20;0.50;;;;;;;14.02;100.00;96825.38;15289227;19;20025;-57
2023/10/29 10:57:47;;;;;;;2.05;0.40;;;;;;;14.06;100.00;96848.22;15293127;19;20025;-56
2023/10/29 11:03:12;;;;;;;1.63;0.40;;;;;;;14.08;100.00;96837.19;15282391;19;20021;-59
2023/10/29 11:08:53;;;;;;;1.13;0.47;;;;;;;14.12;100.00;96855.47;15289163;19;20014;-59
2023/10/29 11:14:18;;;;;;;0.50;0.40;;;;;;;14.18;100.00;96862.69;15282669;19;20014;-56
2023/10/29 11:19:50;;;;;;;0.65;0.30;;;;;;;14.25;100.00;96832.00;15286942;19;20026;-56
2023/10/29 11:25:42;;;;;;;0.70;0.40;;;;;;;14.31;100.00;96841.94;15288772;19;20025;-55
2023/10/29 11:31:25;;;;;;;1.92;0.50;;;;;;;14.31;100.00;96831.09;15286275;19;20359;-56
2023/10/29 11:36:50;;;;;;;1.80;0.30;;;;;;;14.33;100.00;96848.81;15283173;19;20026;-56
2023/10/29 11:42:34;;;;;;;0.73;0.30;;;;;;;14.35;100.00;96872.13;15285586;19;20018;-57
2023/10/29 11:48:15;;;;;;;0.38;0.30;;;;;;;14.36;100.00;96863.78;15287444;19;20007;-54
2023/10/29 11:53:40;;;;;;;2.17;0.32;;;;;;;14.42;100.00;96862.06;15281867;19;20024;-55
2023/10/29 11:59:09;;;;;;;0.32;0.32;;;;;;;14.49;100.00;96868.22;15285802;19;20030;-56
2023/10/29 12:04:37;;;;;;;0.70;0.30;;;;;;;14.60;100.00;96885.63;15285800;19;20548;-54
2023/10/29 12:10:03;;;;;;;0.40;0.28;;;;;;;14.71;100.00;96871.34;15282058;19;20014;-57
2023/10/29 12:15:31;;;;;;;0.70;0.40;;;;;;;14.83;100.00;96876.00;15284751;19;20022;-56
2023/10/29 12:21:11;;;;;;;0.60;0.20;;;;;;;14.83;100.00;96867.88;15283595;19;20018;-58
2023/10/29 12:26:36;;;;;;;0.38;0.28;;;;;;;14.83;100.00;96876.00;15278707;19;20469;-58
2023/10/29 12:32:03;;;;;;;0.55;0.43;;;;;;;14.83;100.00;96878.72;15279552;19;20074;-52
2023/10/29 12:37:30;;;;;;;0.70;0.30;;;;;;;14.72;100.00;96886.56;15281258;19;20018;-54
2023/10/29 12:42:58;;;;;;;0.65;0.40;;;;;;;14.62;100.00;96878.91;15271831;19;20022;-53
2023/10/29 12:48:26;;;;;;;0.32;0.30;;;;;;;14.65;100.00;96893.88;15282328;19;20015;-57
2023/10/29 12:53:50;;;;;;;1.08;0.50;;;;;;;14.69;100.00;96888.91;15276740;19;20030;-54
2023/10/29 12:59:15;;;;;;;0.60;0.40;;;;;;;14.71;100.00;96887.63;15277155;19;20495;-55
2023/10/29 13:04:44;;;;;;;0.75;0.30;;;;;;;14.82;100.00;96882.50;15280658;19;20039;-55
2023/10/29 13:10:12;;;;;;;1.08;0.35;;;;;;;14.96;100.00;96889.41;15282210;19;20022;-53
2023/10/29 13:15:37;;;;;;;0.98;0.40;;;;;;;14.96;100.00;96856.88;15271775;19;20415;-53
2023/10/29 13:21:11;;;;;;;1.23;0.35;;;;;;;15.00;100.00;96854.53;15277188;19;20090;-56
2023/10/29 13:26:37;;;;;;;2.05;0.50;;;;;;;15.03;100.00;96844.06;15277257;19;20018;-51
2023/10/29 13:32:01;;;;;;;1.08;0.50;;;;;;;15.04;100.00;96856.56;15277264;19;20022;-54
2023/10/29 13:37:30;;;;;;;0.32;0.30;;;;;;;15.10;100.00;96847.53;15278433;19;20033;-54
2023/10/29 13:42:54;;;;;;;0.85;0.38;;;;;;;15.15;100.00;96860.41;15272785;19;20053;-59
2023/10/29 13:48:19;;;;;;;0.70;0.40;;;;;;;15.15;100.00;96859.53;15267534;19;20035;-53
2023/10/29 13:53:47;;;;;;;0.75;0.35;;;;;;;15.11;100.00;96848.34;15266149;19;20074;-54
2023/10/29 13:59:11;;;;;;;0.70;0.40;;;;;;;15.10;100.00;96833.97;15293217;19;20013;-55
2023/10/29 14:04:38;;;;;;;0.20;0.20;;;;;;;15.12;100.00;96830.16;15293139;19;20027;-54
2023/10/29 14:10:05;;;;;;;0.50;0.50;;;;;;;15.09;100.00;96826.03;15290663;19;20423;-57
2023/10/29 14:15:29;;;;;;;1.75;0.60;;;;;;;15.10;100.00;96817.69;15292055;19;20086;-55
2023/10/29 14:21:02;;;;;;;1.60;0.65;;;;;;;15.28;100.00;96802.41;15286219;19;20020;-55
2023/10/29 14:26:30;;;;;;;0.95;0.80;;;;;;;15.35;100.00;96792.25;15347744;19;20010;-61
2023/10/29 14:31:55;;;;;;;0.55;0.55;;;;;;;15.35;100.00;96796.88;15319348;19;20031;-57
2023/10/29 14:37:21;;;;;;;1.98;0.40;;;;;;;15.25;100.00;96795.56;15289798;19;20044;-55
2023/10/29 14:42:50;;;;;;;0.60;0.40;;;;;;;15.12;100.00;96800.31;15284064;19;20433;-58
2023/10/29 14:48:35;;;;;;;0.75;0.38;;;;;;;15.04;100.00;96805.03;15291366;19;20015;-57
2023/10/29 14:53:59;;;;;;;0.40;0.30;;;;;;;15.00;100.00;96801.13;15278695;19;20014;-59
2023/10/29 14:59:28;;;;;;;0.60;0.30;;;;;;;14.94;100.00;96804.75;15287645;19;20014;-57
2023/10/29 15:04:53;;;;;;;2.28;0.60;;;;;;;14.87;100.00;96804.84;15286952;19;20013;-57
2023/10/29 15:10:18;;;;;;;0.65;0.47;;;;;;;14.80;100.00;96801.41;15287304;19;20015;-59
2023/10/29 15:15:45;;;;;;;1.50;0.45;;;;;;;14.70;100.00;96795.69;15283591;19;20020;-60
2023/10/29 15:21:18;;;;;;;2.28;0.60;;;;;;;14.65;100.00;96799.03;15286117;19;20360;-57
2023/10/29 15:26:43;;;;;;;2.25;1.13;;;;;;;14.59;100.00;96800.78;15284960;19;20027;-59
2023/10/29 15:32:10;;;;;;;1.27;0.80;;;;;;;14.51;100.00;96802.97;15282670;19;20539;-59
2023/10/29 15:37:37;;;;;;;3.17;0.73;;;;;;;14.44;100.00;96817.41;15282970;19;20022;-57
2023/10/29 15:43:02;;;;;;;0.75;0.50;;;;;;;14.58;100.00;96801.00;15278857;19;20401;-56
2023/10/29 15:48:29;;;;;;;1.20;0.60;;;;;;;14.64;100.00;96773.03;15281191;19;20022;-53
2023/10/29 15:53:54;;;;;;;1.05;0.55;;;;;;;14.57;100.00;96756.84;15272639;19;20015;-55
2023/10/29 15:59:20;;;;;;;1.10;0.75;;;;;;;14.53;100.00;96754.78;15281871;19;20020;-54
2023/10/29 16:04:47;;;;;;;1.52;0.50;;;;;;;14.47;100.00;96745.69;15279545;19;20019;-55
2023/10/29 16:10:12;;;;;;;0.47;0.40;;;;;;;14.40;100.00;96734.97;15284578;19;20488;-56
2023/10/29 16:15:37;;;;;;;1.23;0.60;;;;;;;14.36;100.00;96750.00;15277748;19;20026;-56
2023/10/29 16:21:04;;;;;;;1.42;0.50;;;;;;;14.39;100.00;96751.41;15276858;19;20018;-56
2023/10/29 16:26:29;;;;;;;2.85;0.70;;;;;;;14.36;100.00;96744.59;15269596;19;20355;-60
2023/10/29 16:31:53;;;;;;;2.15;0.52;;;;;;;14.43;100.00;96750.75;15273006;19;20027;-55
2023/10/29 16:37:21;;;;;;;0.85;0.60;;;;;;;14.40;100.00;96755.78;15262234;19;20039;-56
2023/10/29 16:42:46;;;;;;;1.10;0.50;;;;;;;14.37;100.00;96757.06;15279375;19;20737;-58
2023/10/29 16:48:11;;;;;;;1.05;0.47;;;;;;;14.31;100.00;96772.34;15281510;19;20006;-55
2023/10/29 16:53:39;;;;;;;0.98;0.50;;;;;;;14.33;100.00;96777.53;15276991;19;20020;-55
2023/10/29 16:59:05;;;;;;;0.77;0.40;;;;;;;14.40;100.00;96786.44;15276353;19;20025;-56
2023/10/29 17:04:31;;;;;;;1.50;0.63;;;;;;;14.42;100.00;96776.16;15275670;19;20015;-60
2023/10/29 17:10:18;;;;;;;1.50;0.55;;;;;;;14.46;100.00;96793.63;15280919;19;20014;-56
2023/10/29 17:15:43;;;;;;;0.95;0.50;;;;;;;14.45;100.00;96808.25;15276362;19;20022;-56
2023/10/29 17:21:15;;;;;;;1.95;0.60;;;;;;;14.42;100.00;96827.66;15279184;19;20028;-55
2023/10/29 17:26:42;;;;;;;1.00;0.50;;;;;;;14.31;100.00;96844.66;15275849;19;20423;-53
2023/10/29 17:32:36;;;;;;;0.80;0.40;;;;;;;14.24;100.00;96884.53;15262050;19;20039;-59
2023/10/29 17:38:01;;;;;;;2.22;0.70;;;;;;;14.12;100.00;96901.50;15271900;19;20042;-56
2023/10/29 17:43:28;;;;;;;1.55;0.60;;;;;;;13.94;100.00;96926.63;15274061;19;20010;-57
2023/10/29 17:48:54;;;;;;;1.05;0.57;;;;;;;13.76;100.00;96950.94;15278238;19;20021;-56
2023/10/29 17:54:20;;;;;;;1.38;0.60;;;;;;;13.63;100.00;96959.94;15272060;19;20438;-52
2023/10/29 17:59:48;;;;;;;1.67;0.68;;;;;;;13.51;100.00;96984.97;15275113;19;20026;-52
2023/10/29 18:05:14;;;;;;;3.42;0.73;;;;;;;13.19;100.00;97014.63;15259342;19;20019;-54
2023/10/29 18:10:39;;;;;;;1.30;0.70;;;;;;;12.94;100.00;97063.97;15274827;19;20014;-53
2023/10/29 18:16:08;;;;;;;1.58;0.60;;;;;;;12.78;100.00;97127.38;15275602;19;20011;-53
2023/10/29 18:21:39;;;;;;;3.40;0.73;;;;;;;12.66;100.00;97147.09;15274211;19;20780;-53
2023/10/29 18:27:03;;;;;;;1.67;0.75;;;;;;;12.55;100.00;97184.50;15271500;19;20017;-53
2023/10/29 18:32:31;;;;;;;2.35;0.60;;;;;;;12.48;100.00;97218.78;15272524;19;20017;-49
2023/10/29 18:37:55;;;;;;;1.85;0.73;;;;;;;12.42;100.00;97220.44;15262181;19;20022;-53
2023/10/29 18:43:22;;;;;;;1.00;0.70;;;;;;;12.36;100.00;97233.91;15271010;19;20021;-48
2023/10/29 18:48:49;;;;;;;1.48;0.77;;;;;;;12.31;100.00;97258.81;15288327;19;20011;-50
2023/10/29 18:54:15;;;;;;;1.50;0.60;;;;;;;12.25;100.00;97292.84;15279918;19;20824;-51
2023/10/29 18:59:39;;;;;;;0.93;0.60;;;;;;;12.17;100.00;97293.84;15287577;19;20018;-50
2023/10/29 19:05:07;;;;;;;1.55;0.80;;;;;;;12.12;100.00;97295.47;15278790;19;20057;-53
2023/10/29 19:10:31;;;;;;;3.30;0.60;;;;;;;12.08;100.00;97305.00;15280244;19;20021;-55
2023/10/29 19:15:56;;;;;;;2.58;0.93;;;;;;;12.03;100.00;97327.19;15285468;19;20022;-50
2023/10/29 19:21:23;;;;;;;1.98;1.00;;;;;;;11.99;100.00;97329.44;15282345;19;20025;-52
2023/10/29 19:26:48;;;;;;;3.58;1.00;;;;;;;11.98;100.00;97329.66;15282775;19;20379;-54
2023/10/29 19:32:13;;;;;;;2.58;0.90;;;;;;;11.96;100.00;97321.72;15284566;19;20027;-52
2023/10/29 19:37:40;;;;;;;1.20;0.80;;;;;;;11.93;100.00;97275.41;15285128;19;20025;-52
2023/10/29 19:43:05;;;;;;;2.35;0.80;;;;;;;11.90;100.00;97267.69;15279094;19;20025;-50
2023/10/29 19:48:30;;;;;;;1.10;0.52;;;;;;;11.84;100.00;97229.69;15285604;19;21323;-52
2023/10/29 19:53:59;;;;;;;0.50;0.50;;;;;;;11.81;100.00;97213.06;15279028;19;20054;-55
2023/10/29 19:59:24;;;;;;;1.10;0.43;;;;;;;11.77;100.00;97225.28;15263937;19;20021;-53
2023/10/29 20:04:53;;;;;;;0.68;0.38;;;;;;;11.78;100.00;97235.03;15278410;19;20028;-55
2023/10/29 20:10:21;;;;;;;1.55;0.47;;;;;;;11.80;100.00;97230.28;15284572;19;20018;-52
2023/10/29 20:15:52;;;;;;;0.40;0.40;;;;;;;11.81;100.00;97254.38;15276920;19;20025;-50
2023/10/29 20:21:24;;;;;;;0.60;0.40;;;;;;;11.83;100.00;97252.31;15278868;19;20110;-53
2023/10/29 20:26:52;;;;;;;0.43;0.43;;;;;;;11.79;100.00;97229.44;15278337;19;20021;-51
2023/10/29 20:32:17;;;;;;;1.35;0.47;;;;;;;11.77;100.00;97225.28;15274425;19;20010;-53
2023/10/29 20:37:41;;;;;;;0.63;0.45;;;;;;;11.77;100.00;97230.69;15280192;19;20010;-53
2023/10/29 20:43:09;;;;;;;1.70;0.55;;;;;;;11.79;100.00;97255.59;15277166;19;20378;-56
2023/10/29 20:48:33;;;;;;;0.68;0.50;;;;;;;11.79;100.00;97269.09;15278852;19;20022;-50
2023/10/29 20:53:58;;;;;;;1.00;0.40;;;;;;;11.75;100.00;97286.69;15278339;19;20022;-50
2023/10/29 20:59:25;;;;;;;1.20;0.30;;;;;;;11.75;100.00;97284.84;15279545;19;20020;-49
2023/10/29 21:04:50;;;;;;;0.80;0.30;;;;;;;11.74;100.00;97303.91;15271955;19;20006;-49
2023/10/29 21:10:14;;;;;;;0.45;0.30;;;;;;;11.71;100.00;97299.75;15279737;19;20018;-55
2023/10/29 21:15:47;;;;;;;1.40;0.30;;;;;;;11.65;100.00;97311.31;15279599;19;20002;-51
2023/10/29 21:21:12;;;;;;;0.47;0.28;;;;;;;11.59;100.00;97317.50;15280340;19;20024;-51
2023/10/29 21:26:37;;;;;;;0.47;0.22;;;;;;;11.49;100.00;97317.81;15279746;19;20558;-52
2023/10/29 21:32:04;;;;;;;0.35;0.20;;;;;;;11.41;100.00;97314.25;15278334;19;20022;-48
2023/10/29 21:37:29;;;;;;;0.22;0.20;;;;;;;11.38;100.00;97338.91;15278738;19;20017;-49
2023/10/29 21:42:54;;;;;;;0.73;0.30;;;;;;;11.35;100.00;97333.06;15276376;19;20015;-49
2023/10/29 21:48:21;;;;;;;0.73;0.20;;;;;;;11.35;100.00;97319.59;15277083;19;20020;-53
2023/10/29 21:53:46;;;;;;;1.10;0.30;;;;;;;11.35;100.00;97292.63;15274419;19;20035;-49
2023/10/29 21:59:11;;;;;;;0.38;0.20;;;;;;;11.37;100.00;97318.34;15278813;19;20425;-54
2023/10/29 22:04:40;;;;;;;0.30;0.30;;;;;;;11.36;100.00;97316.69;15274142;19;20029;-53
2023/10/29 22:10:07;;;;;;;0.50;0.20;;;;;;;11.36;100.00;97315.84;15278358;19;20025;-53
2023/10/29 22:15:34;;;;;;;0.73;0.30;;;;;;;11.32;100.00;97347.78;15276111;19;20467;-52
2023/10/29 22:21:08;;;;;;;1.23;0.30;;;;;;;11.30;100.00;97357.06;15286286;19;20070;-52
2023/10/29 22:26:34;;;;;;;0.30;0.28;;;;;;;11.29;100.00;97348.16;15291565;19;20290;-50
2023/10/29 22:32:00;;;;;;;1.35;0.35;;;;;;;11.29;100.00;97364.31;15290194;19;20502;-52
2023/10/29 22:37:28;;;;;;;1.35;0.30;;;;;;;11.28;100.00;97362.66;15289516;19;20021;-51
2023/10/29 22:42:54;;;;;;;1.25;0.30;;;;;;;11.23;100.00;97359.72;15288495;19;20517;-48
2023/10/29 22:48:18;;;;;;;0.50;0.30;;;;;;;11.19;100.00;97350.34;15291754;19;20449;-49
2023/10/29 22:53:47;;;;;;;1.85;0.40;;;;;;;11.18;100.00;97376.44;15278382;19;20711;-49
2023/10/29 22:59:13;;;;;;;0.47;0.30;;;;;;;11.24;100.00;97366.75;15266858;19;20478;-51
2023/10/29 23:04:37;;;;;;;0.85;0.30;;;;;;;11.28;100.00;97378.84;15287772;19;20021;-50
2023/10/29 23:10:04;;;;;;;0.40;0.30;;;;;;;11.32;100.00;97369.34;15290162;19;20409;-53
2023/10/29 23:15:30;;;;;;;2.58;0.20;;;;;;;11.35;100.00;97363.53;15289729;19;20024;-50
2023/10/29 23:20:55;;;;;;;1.55;0.45;;;;;;;11.39;100.00;97381.03;15289259;19;20453;-50
2023/10/29 23:26:22;;;;;;;1.48;0.40;;;;;;;11.40;100.00;97344.13;15278885;19;20006;-49
2023/10/29 23:31:47;;;;;;;2.05;0.40;;;;;;;11.41;100.00;97352.00;15286668;19;20464;-49
2023/10/29 23:37:12;;;;;;;0.65;0.30;;;;;;;11.38;100.00;97363.16;15286795;19;20016;-49
2023/10/29 23:42:39;;;;;;;1.23;0.50;;;;;;;11.32;100.00;97363.94;15285754;19;20573;-50
2023/10/29 23:48:04;;;;;;;2.22;0.40;;;;;;;11.30;100.00;97368.69;15286321;19;20093;-49
2023/10/29 23:53:28;;;;;;;1.45;0.47;;;;;;;11.28;100.00;97367.22;15283414;19;20039;-48
2023/10/29 23:58:56;;;;;;;1.95;0.30;;;;;;;11.25;100.00;97363.88;15284438;19;20034;-50
